Time;durP1;ratioP1;P1;durP2;ratioP2;P2;SDS_P1;SDS_P2;PMS_P1;PMS_P2;Temp;Humidity;BMP_temperature;BMP_pressure;BME280_temperature;BME280_humidity;BME280_pressure;Samples;Min_cycle;Max_cycle;Signal;HPM_P1;HPM_P2
2021/06/29 00:01:03;;;;;;;11.25;9.55;;;22.70;99.90;;;;;;5019977;28;20105;-80
2021/06/29 00:03:30;;;;;;;15.65;9.25;;;22.50;99.90;;;;;;5030580;28;20077;-81
2021/06/29 00:05:56;;;;;;;11.18;9.98;;;22.50;99.90;;;;;;5018633;28;20065;-81
2021/06/29 00:08:25;;;;;;;12.40;9.80;;;22.40;99.90;;;;;;5025402;28;20085;-81
2021/06/29 00:10:53;;;;;;;10.82;9.45;;;22.40;99.90;;;;;;5026298;28;20060;-80
2021/06/29 00:13:21;;;;;;;11.60;10.40;;;22.40;99.90;;;;;;5018826;28;20061;-80
2021/06/29 00:15:49;;;;;;;14.43;10.55;;;22.40;99.90;;;;;;5048899;28;20042;-81
2021/06/29 00:18:16;;;;;;;13.18;11.20;;;22.30;99.90;;;;;;5033428;28;20057;-80
2021/06/29 00:20:43;;;;;;;15.90;11.48;;;22.10;99.90;;;;;;5033633;28;20132;-80
2021/06/29 00:23:10;;;;;;;14.65;11.80;;;22.00;99.90;;;;;;5037189;28;20053;-80
2021/06/29 00:25:37;;;;;;;14.98;12.32;;;22.00;99.90;;;;;;5019921;28;20084;-80
2021/06/29 00:28:06;;;;;;;15.57;12.80;;;22.00;99.90;;;;;;5032422;28;20046;-81
2021/06/29 00:30:33;;;;;;;17.67;13.55;;;21.90;99.90;;;;;;5027608;28;20081;-80
2021/06/29 00:32:59;;;;;;;18.10;13.60;;;21.90;99.90;;;;;;5037262;28;20073;-80
2021/06/29 00:35:26;;;;;;;21.73;13.80;;;21.90;99.90;;;;;;5037483;28;20080;-80
2021/06/29 00:37:53;;;;;;;15.63;14.00;;;21.90;99.90;;;;;;5020910;28;20133;-81
2021/06/29 00:40:20;;;;;;;17.42;14.25;;;22.00;99.90;;;;;;5037390;28;20123;-80
2021/06/29 00:42:47;;;;;;;18.55;15.15;;;22.00;99.90;;;;;;5022170;28;20124;-79
2021/06/29 00:45:16;;;;;;;18.27;16.17;;;22.00;99.90;;;;;;5031930;28;20081;-80
2021/06/29 00:47:43;;;;;;;20.65;16.45;;;22.00;99.90;;;;;;5032093;28;20049;-79
2021/06/29 00:50:11;;;;;;;18.83;16.58;;;22.00;99.90;;;;;;5022284;28;20103;-79
2021/06/29 00:52:40;;;;;;;20.65;17.65;;;22.00;99.90;;;;;;5035107;28;20100;-79
2021/06/29 00:55:08;;;;;;;21.38;16.55;;;21.90;99.90;;;;;;5029491;28;20053;-78
2021/06/29 00:57:36;;;;;;;19.40;17.10;;;21.80;99.90;;;;;;5014829;28;20601;-79
2021/06/29 01:00:05;;;;;;;18.80;16.38;;;21.70;99.90;;;;;;5029473;28;20062;-80
2021/06/29 01:02:34;;;;;;;19.15;16.10;;;21.70;99.90;;;;;;5024690;28;20057;-80
2021/06/29 01:05:01;;;;;;;19.33;14.80;;;21.70;99.90;;;;;;5022637;28;20092;-80
2021/06/29 01:07:29;;;;;;;16.65;14.88;;;21.70;99.90;;;;;;5032632;28;20046;-80
2021/06/29 01:09:56;;;;;;;16.08;14.38;;;21.40;99.90;;;;;;5035649;28;20046;-80
2021/06/29 01:12:23;;;;;;;17.70;15.18;;;21.30;99.90;;;;;;5034169;28;20568;-80
2021/06/29 01:14:49;;;;;;;15.65;14.15;;;21.20;99.90;;;;;;5038458;28;20529;-79
2021/06/29 01:17:18;;;;;;;17.83;14.75;;;21.20;99.90;;;;;;5037811;28;20132;-79
2021/06/29 01:19:48;;;;;;;15.63;14.02;;;21.20;99.90;;;;;;5038167;28;20137;-79
2021/06/29 01:22:17;;;;;;;16.00;14.40;;;21.20;99.90;;;;;;5036576;28;20049;-79
2021/06/29 01:24:48;;;;;;;20.00;15.55;;;21.20;99.90;;;;;;5036681;28;20056;-81
2021/06/29 01:27:32;;;;;;;17.17;14.73;;;21.20;99.90;;;;;;5036742;28;20120;-79
2021/06/29 01:32:47;;;;;;;18.73;15.65;;;21.20;99.90;;;;;;5038544;28;20092;-80
2021/06/29 01:35:15;;;;;;;18.73;15.15;;;21.30;99.90;;;;;;5040001;28;20084;-81
2021/06/29 01:37:43;;;;;;;19.40;14.85;;;21.30;99.90;;;;;;5039438;28;20492;-81
2021/06/29 01:40:14;;;;;;;17.73;13.95;;;21.20;99.90;;;;;;5039808;28;20069;-81
2021/06/29 01:42:41;;;;;;;17.00;13.43;;;21.30;99.90;;;;;;5040408;28;20484;-80
2021/06/29 01:45:09;;;;;;;16.42;13.52;;;21.20;99.90;;;;;;5038872;28;20131;-80
2021/06/29 01:47:51;;;;;;;16.75;13.18;;;21.20;99.90;;;;;;5039472;28;20105;-81
2021/06/29 01:50:18;;;;;;;15.00;13.48;;;21.10;99.90;;;;;;5039469;28;20077;-80
2021/06/29 01:52:47;;;;;;;16.42;14.40;;;21.10;99.90;;;;;;5038748;28;20049;-80
2021/06/29 01:55:17;;;;;;;15.60;14.00;;;21.00;99.90;;;;;;5038348;28;20054;-80
2021/06/29 01:57:47;;;;;;;16.70;14.95;;;21.10;99.90;;;;;;5037204;28;20136;-80
2021/06/29 02:00:14;;;;;;;15.55;13.93;;;21.10;99.90;;;;;;5036978;28;20498;-80
2021/06/29 02:02:41;;;;;;;16.70;13.80;;;21.10;99.90;;;;;;5036941;28;20049;-80
2021/06/29 02:05:09;;;;;;;18.40;13.80;;;21.10;99.90;;;;;;5035307;28;20053;-80
2021/06/29 02:07:36;;;;;;;18.67;12.88;;;21.10;99.90;;;;;;5035796;28;20123;-81
2021/06/29 02:10:05;;;;;;;18.17;13.43;;;21.10;99.90;;;;;;5040674;28;20517;-81
2021/06/29 02:12:33;;;;;;;14.82;12.75;;;21.10;99.90;;;;;;5039923;28;20050;-81
2021/06/29 02:15:00;;;;;;;17.20;12.27;;;21.10;99.90;;;;;;5040198;28;20076;-80
2021/06/29 02:17:27;;;;;;;19.52;12.93;;;21.00;99.90;;;;;;5040173;28;20088;-79
2021/06/29 02:19:54;;;;;;;13.98;12.25;;;21.00;99.90;;;;;;5040672;28;20136;-81
2021/06/29 02:22:21;;;;;;;14.50;12.52;;;21.00;99.90;;;;;;5041248;28;20486;-79
2021/06/29 02:24:47;;;;;;;15.27;12.20;;;21.10;99.90;;;;;;5037517;28;20132;-79
2021/06/29 02:27:16;;;;;;;16.15;12.35;;;21.00;99.90;;;;;;5040578;28;20077;-80
2021/06/29 02:29:43;;;;;;;14.75;12.43;;;21.00;99.90;;;;;;5041074;28;20652;-80
2021/06/29 02:32:09;;;;;;;16.75;12.75;;;21.00;99.90;;;;;;5040305;28;20081;-80
2021/06/29 02:34:36;;;;;;;19.27;13.65;;;21.00;99.90;;;;;;5040873;28;20076;-80
2021/06/29 02:37:04;;;;;;;16.58;12.50;;;21.00;99.90;;;;;;5040316;28;20145;-80
2021/06/29 02:39:30;;;;;;;18.25;13.60;;;21.00;99.90;;;;;;5039731;28;20474;-80
2021/06/29 02:41:57;;;;;;;23.52;13.65;;;20.90;99.90;;;;;;5037049;28;20144;-79
2021/06/29 02:44:26;;;;;;;17.05;14.05;;;20.90;99.90;;;;;;5035667;28;20132;-79
2021/06/29 02:46:52;;;;;;;14.38;12.88;;;20.90;99.90;;;;;;5035088;28;20053;-79
2021/06/29 02:49:19;;;;;;;18.58;13.40;;;20.90;99.90;;;;;;5036631;28;20045;-80
2021/06/29 02:51:46;;;;;;;13.90;12.50;;;20.90;99.90;;;;;;5038904;28;20132;-80
2021/06/29 02:54:13;;;;;;;14.05;12.60;;;20.90;99.90;;;;;;5038737;28;20088;-80
2021/06/29 03:01:29;;;;;;;15.25;12.10;;;20.70;99.90;;;;;;5027026;28;20064;-80
2021/06/29 03:06:54;;;;;;;12.98;10.68;;;20.70;99.90;;;;;;4962342;28;20442;-80
2021/06/29 03:22:34;;;;;;;16.92;9.50;;;20.80;99.90;;;;;;1420816;26;20060;-80
2021/06/29 03:30:59;;;;;;;13.95;9.50;;;20.70;99.90;;;;;;5035366;28;20087;-78
2021/06/29 03:33:26;;;;;;;10.80;9.23;;;20.70;99.90;;;;;;5035390;28;20485;-77
2021/06/29 03:35:53;;;;;;;13.02;9.95;;;20.70;99.90;;;;;;5033775;28;20473;-79
2021/06/29 03:38:21;;;;;;;14.02;10.52;;;20.70;99.90;;;;;;5035289;28;20136;-80
2021/06/29 03:40:48;;;;;;;12.68;10.63;;;20.60;99.90;;;;;;5037920;28;20136;-81
2021/06/29 03:43:15;;;;;;;17.67;10.90;;;20.50;99.90;;;;;;5040538;28;20118;-80
2021/06/29 03:45:45;;;;;;;15.82;10.65;;;20.50;99.90;;;;;;5040585;28;20132;-80
2021/06/29 03:48:12;;;;;;;17.52;10.93;;;20.40;99.90;;;;;;5037171;28;20146;-78
2021/06/29 03:50:39;;;;;;;16.00;10.95;;;20.30;99.90;;;;;;5036584;28;20076;-80
2021/06/29 03:53:06;;;;;;;16.42;10.98;;;20.20;99.90;;;;;;5035980;28;20112;-79
2021/06/29 03:55:35;;;;;;;15.57;10.70;;;20.20;99.90;;;;;;5035507;28;20128;-81
2021/06/29 03:58:02;;;;;;;12.43;9.45;;;20.10;99.90;;;;;;5037813;28;20060;-81
2021/06/29 04:00:29;;;;;;;15.63;10.10;;;20.10;99.90;;;;;;5038418;28;20108;-79
2021/06/29 04:02:55;;;;;;;13.55;9.07;;;20.10;99.90;;;;;;5037752;28;20128;-79
2021/06/29 04:05:22;;;;;;;14.50;7.47;;;20.00;99.90;;;;;;5039608;28;20096;-80
2021/06/29 04:07:50;;;;;;;12.93;8.13;;;20.00;99.90;;;;;;5036994;28;20084;-80
2021/06/29 04:10:17;;;;;;;11.05;7.80;;;20.00;99.90;;;;;;5037208;28;20053;-80
2021/06/29 04:12:45;;;;;;;12.18;7.97;;;20.10;99.90;;;;;;5038262;28;20561;-81
2021/06/29 04:15:13;;;;;;;9.93;7.60;;;20.10;99.90;;;;;;5038539;28;20572;-80
2021/06/29 04:17:39;;;;;;;13.38;6.90;;;20.40;99.90;;;;;;5036786;28;20124;-79
2021/06/29 04:20:08;;;;;;;11.27;7.40;;;20.70;99.90;;;;;;5039475;28;20077;-79
2021/06/29 04:22:35;;;;;;;15.88;7.95;;;21.00;99.90;;;;;;5043110;28;20080;-79
2021/06/29 04:25:02;;;;;;;10.75;7.38;;;21.10;99.90;;;;;;5044742;28;20091;-80
2021/06/29 04:27:29;;;;;;;11.88;7.53;;;21.10;99.90;;;;;;5045332;28;20045;-80
2021/06/29 04:29:58;;;;;;;11.35;8.27;;;21.00;99.90;;;;;;5041841;28;20053;-82
2021/06/29 04:32:24;;;;;;;12.45;8.43;;;21.00;99.90;;;;;;5039680;28;20140;-82
2021/06/29 04:34:51;;;;;;;13.27;7.70;;;21.00;99.90;;;;;;5036974;28;20084;-80
2021/06/29 04:37:18;;;;;;;11.48;7.72;;;20.90;99.90;;;;;;5035544;28;20121;-79
2021/06/29 04:39:45;;;;;;;11.05;8.00;;;21.00;99.90;;;;;;5036190;28;20089;-78
2021/06/29 04:42:12;;;;;;;12.07;8.15;;;21.00;99.90;;;;;;5037160;28;20050;-79
2021/06/29 04:44:40;;;;;;;13.23;8.65;;;21.10;99.90;;;;;;5037122;28;20529;-81
2021/06/29 04:47:09;;;;;;;12.23;9.32;;;21.10;99.90;;;;;;5036769;28;20124;-79
2021/06/29 04:49:37;;;;;;;14.80;8.98;;;21.10;99.90;;;;;;5040282;28;20060;-78
2021/06/29 04:52:04;;;;;;;15.48;7.65;;;21.10;99.90;;;;;;5040871;28;20528;-79
2021/06/29 04:54:31;;;;;;;12.15;7.55;;;21.20;99.90;;;;;;5040722;28;20076;-79
2021/06/29 04:56:58;;;;;;;10.18;7.03;;;21.20;99.90;;;;;;5041522;28;20125;-80
2021/06/29 04:59:25;;;;;;;10.00;6.60;;;21.10;99.90;;;;;;5039757;28;20060;-79
2021/06/29 05:01:52;;;;;;;8.52;6.40;;;21.10;99.90;;;;;;5038237;28;20136;-78
2021/06/29 05:04:20;;;;;;;8.50;6.35;;;21.00;99.90;;;;;;5037516;28;20100;-79
2021/06/29 05:06:47;;;;;;;10.15;5.65;;;20.90;99.90;;;;;;5038519;28;20462;-79
2021/06/29 05:09:14;;;;;;;9.65;5.53;;;20.80;99.90;;;;;;5038827;28;20128;-79
2021/06/29 05:11:41;;;;;;;11.18;5.47;;;20.70;99.90;;;;;;5039726;28;20092;-81
2021/06/29 05:14:09;;;;;;;7.05;4.90;;;20.70;99.90;;;;;;5046302;28;20107;-80
2021/06/29 05:19:11;;;;;;;8.23;4.53;;;20.80;99.90;;;;;;5073693;23;20057;-79
2021/06/29 05:21:39;;;;;;;11.32;4.50;;;20.80;99.90;;;;;;5025767;28;20050;-79
2021/06/29 05:24:07;;;;;;;5.68;4.18;;;21.00;99.90;;;;;;5024257;28;20138;-79
2021/06/29 05:26:34;;;;;;;7.25;4.25;;;21.30;99.90;;;;;;5024445;28;20042;-80
2021/06/29 05:29:02;;;;;;;7.40;4.05;;;21.40;99.90;;;;;;5024999;28;20073;-81
2021/06/29 05:31:29;;;;;;;6.53;4.32;;;21.60;99.90;;;;;;5024228;28;20057;-83
2021/06/29 05:33:56;;;;;;;9.27;4.30;;;21.80;99.90;;;;;;5023889;28;20077;-80
2021/06/29 05:36:23;;;;;;;6.65;4.25;;;21.90;99.90;;;;;;5021875;28;20077;-80
2021/06/29 05:38:51;;;;;;;5.85;4.32;;;21.90;99.90;;;;;;5020028;28;20049;-80
2021/06/29 05:41:18;;;;;;;6.28;4.00;;;22.00;99.90;;;;;;5016912;28;20050;-79
2021/06/29 05:43:45;;;;;;;7.07;4.10;;;22.20;99.90;;;;;;5023276;28;20213;-81
2021/06/29 05:46:14;;;;;;;6.90;4.47;;;22.10;99.90;;;;;;5033886;28;20046;-81
2021/06/29 05:48:48;;;;;;;10.98;4.65;;;22.20;99.90;;;;;;5034725;28;20054;-82
2021/06/29 05:51:22;;;;;;;5.10;4.30;;;22.30;99.90;;;;;;5032423;28;20046;-82
2021/06/29 05:53:59;;;;;;;6.53;4.38;;;22.20;99.90;;;;;;5029264;28;20054;-82
2021/06/29 05:56:30;;;;;;;4.93;4.13;;;22.00;99.90;;;;;;5027389;28;20100;-81
2021/06/29 05:58:57;;;;;;;6.30;4.40;;;22.00;99.90;;;;;;5025108;28;20077;-82
2021/06/29 06:01:40;;;;;;;7.45;4.22;;;21.90;99.90;;;;;;5027158;28;20049;-82
2021/06/29 06:04:10;;;;;;;5.47;4.55;;;21.90;99.90;;;;;;5025739;28;20085;-84
2021/06/29 06:06:38;;;;;;;6.03;4.70;;;21.90;99.90;;;;;;5030299;28;20033;-82
2021/06/29 06:09:06;;;;;;;8.60;4.97;;;21.80;99.90;;;;;;5034498;28;20080;-83
2021/06/29 06:11:34;;;;;;;9.18;4.88;;;21.80;99.90;;;;;;5034609;28;20054;-83
2021/06/29 06:14:01;;;;;;;7.82;4.57;;;21.80;99.90;;;;;;5033586;28;20096;-82
2021/06/29 06:16:51;;;;;;;5.35;3.92;;;21.90;99.90;;;;;;5033899;28;20339;-84
2021/06/29 06:19:18;;;;;;;9.13;4.43;;;22.10;99.90;;;;;;5028740;28;20502;-84
2021/06/29 06:21:54;;;;;;;12.88;4.43;;;22.40;99.90;;;;;;5026431;28;20054;-84
2021/06/29 06:24:35;;;;;;;15.18;4.40;;;22.60;99.90;;;;;;5027453;28;20065;-84
2021/06/29 06:27:13;;;;;;;16.52;4.50;;;22.90;99.90;;;;;;5026460;28;20269;-84
2021/06/29 06:29:44;;;;;;;43.88;8.02;;;23.10;99.90;;;;;;5028741;28;20061;-85
2021/06/29 06:32:13;;;;;;;26.20;6.68;;;23.30;99.90;;;;;;5028159;28;20133;-83
2021/06/29 06:34:43;;;;;;;32.78;7.10;;;23.50;99.90;;;;;;5024052;28;20053;-83
2021/06/29 06:37:10;;;;;;;21.27;5.45;;;23.60;99.90;;;;;;5023843;28;20518;-83
2021/06/29 06:39:41;;;;;;;7.78;3.50;;;23.50;99.90;;;;;;5024205;28;20081;-81
2021/06/29 06:42:11;;;;;;;9.02;4.15;;;23.30;99.90;;;;;;5025963;28;20046;-80
2021/06/29 06:44:41;;;;;;;6.70;3.80;;;23.20;99.90;;;;;;5027756;28;20049;-81
2021/06/29 06:47:15;;;;;;;7.05;4.00;;;23.10;99.90;;;;;;5028101;28;20045;-81
2021/06/29 06:49:44;;;;;;;11.48;3.80;;;22.90;99.90;;;;;;5026710;28;20061;-82
2021/06/29 06:52:13;;;;;;;11.40;4.10;;;22.80;99.90;;;;;;5027271;28;20060;-80
2021/06/29 06:54:41;;;;;;;8.27;3.75;;;22.60;99.90;;;;;;5019402;28;20038;-85
2021/06/29 06:57:10;;;;;;;7.00;3.72;;;22.60;99.90;;;;;;5015088;28;20050;-80
2021/06/29 06:59:37;;;;;;;46.63;8.07;;;22.70;99.90;;;;;;5014564;28;20093;-84
2021/06/29 07:02:06;;;;;;;7.75;4.10;;;22.70;99.90;;;;;;5020075;28;20058;-81
2021/06/29 07:04:34;;;;;;;9.98;4.20;;;22.90;99.90;;;;;;5006220;28;20112;-79
2021/06/29 07:07:01;;;;;;;9.93;4.55;;;22.80;99.90;;;;;;5019411;28;20045;-79
2021/06/29 07:09:28;;;;;;;10.20;4.30;;;22.80;99.90;;;;;;5026723;28;20053;-79
2021/06/29 07:11:58;;;;;;;7.78;4.00;;;22.90;99.90;;;;;;5023565;28;20056;-81
2021/06/29 07:14:27;;;;;;;4.63;3.92;;;22.90;99.90;;;;;;5023156;28;20066;-82
2021/06/29 07:16:55;;;;;;;7.28;3.97;;;22.80;99.90;;;;;;5022531;28;20053;-80
2021/06/29 07:19:24;;;;;;;8.20;4.22;;;22.60;99.90;;;;;;5021487;28;20061;-80
2021/06/29 07:21:58;;;;;;;5.00;3.90;;;22.40;99.90;;;;;;5001527;28;20050;-82
2021/06/29 07:24:25;;;;;;;4.18;3.40;;;22.40;99.90;;;;;;5002330;28;20137;-82
2021/06/29 07:26:55;;;;;;;5.55;3.80;;;22.30;99.90;;;;;;5001223;28;20062;-81
2021/06/29 07:29:23;;;;;;;5.75;3.83;;;22.20;99.90;;;;;;5002586;28;20254;-83
2021/06/29 07:31:51;;;;;;;4.85;3.38;;;22.40;99.90;;;;;;5002318;28;20054;-82
2021/06/29 07:34:20;;;;;;;5.13;3.70;;;22.30;99.90;;;;;;5002243;28;20053;-83
2021/06/29 07:36:56;;;;;;;5.25;3.67;;;22.40;99.90;;;;;;5000176;28;20073;-80
2021/06/29 07:39:27;;;;;;;12.75;4.60;;;22.30;99.90;;;;;;5001792;28;20077;-82
2021/06/29 07:41:54;;;;;;;14.20;4.38;;;22.40;99.90;;;;;;5001287;28;20101;-82
2021/06/29 07:44:31;;;;;;;5.53;3.60;;;22.40;99.90;;;;;;5001263;28;20050;-80
2021/06/29 07:47:01;;;;;;;6.05;3.50;;;22.60;99.90;;;;;;5000735;28;20113;-81
2021/06/29 07:49:37;;;;;;;10.15;3.95;;;22.80;99.90;;;;;;5000668;28;20061;-82
2021/06/29 07:52:10;;;;;;;13.57;4.65;;;22.80;99.90;;;;;;5001710;28;20057;-81
2021/06/29 08:00:18;;;;;;;4.22;2.30;;;24.60;99.90;;;;;;4999368;28;20113;-82
2021/06/29 08:02:52;;;;;;;3.75;2.80;;;25.00;99.90;;;;;;5000465;28;20349;-81
2021/06/29 08:08:44;;;;;;;11.48;3.10;;;25.70;99.90;;;;;;4951921;28;20062;-82
2021/06/29 08:11:26;;;;;;;5.20;3.10;;;26.20;99.90;;;;;;5003729;28;20050;-82
2021/06/29 08:13:53;;;;;;;5.38;3.53;;;26.50;99.90;;;;;;5003551;28;20077;-82
2021/06/29 08:16:43;;;;;;;5.97;3.30;;;26.60;99.90;;;;;;5004238;28;20054;-81
2021/06/29 08:22:01;;;;;;;12.73;3.88;;;26.90;99.90;;;;;;5005876;28;20074;-82
2021/06/29 08:24:31;;;;;;;6.75;3.33;;;27.30;99.90;;;;;;5024244;28;20050;-82
2021/06/29 08:27:09;;;;;;;5.45;3.22;;;27.00;99.90;;;;;;5024665;28;20061;-82
2021/06/29 08:29:46;;;;;;;4.95;3.22;;;26.60;99.90;;;;;;5025002;28;20145;-82
2021/06/29 08:32:18;;;;;;;4.68;3.15;;;26.80;99.90;;;;;;5019690;28;20060;-83
2021/06/29 08:34:50;;;;;;;3.47;3.03;;;27.10;99.90;;;;;;5024153;28;20050;-83
2021/06/29 08:42:45;;;;;;;6.22;4.32;;;28.10;99.90;;;;;;5021902;28;20050;-82
2021/06/29 08:45:17;;;;;;;5.18;4.13;;;28.30;99.90;;;;;;5022774;28;20114;-82
2021/06/29 08:54:19;;;;;;;7.95;4.60;;;28.10;99.90;;;;;;5014556;28;20089;-83
2021/06/29 09:01:57;;;;;;;12.15;5.43;;;27.60;99.90;;;;;;5025370;28;19921;-81
2021/06/29 09:04:51;;;;;;;6.95;5.00;;;27.70;99.90;;;;;;5019435;28;20045;-82
2021/06/29 09:07:20;;;;;;;10.00;4.88;;;28.00;99.90;;;;;;5017773;28;20046;-81
2021/06/29 09:09:55;;;;;;;6.63;5.55;;;27.90;99.90;;;;;;5000520;28;20084;-83
2021/06/29 09:12:42;;;;;;;9.15;4.47;;;27.60;99.90;;;;;;5001565;28;20069;-83
2021/06/29 09:15:30;;;;;;;21.58;6.00;;;27.60;99.90;;;;;;5002815;28;20077;-83
2021/06/29 09:18:01;;;;;;;8.00;4.75;;;27.90;99.90;;;;;;5001934;28;20078;-83
2021/06/29 09:20:32;;;;;;;29.15;6.95;;;28.00;99.90;;;;;;5002632;28;20054;-84
2021/06/29 09:23:08;;;;;;;6.70;4.40;;;28.30;99.90;;;;;;4999675;28;20046;-83
2021/06/29 09:25:38;;;;;;;11.30;4.93;;;28.20;99.90;;;;;;5006792;28;20054;-84
2021/06/29 09:28:06;;;;;;;7.97;4.40;;;28.00;99.90;;;;;;5004224;28;20042;-84
2021/06/29 09:30:40;;;;;;;8.00;4.80;;;27.80;99.90;;;;;;5004171;28;20050;-84
2021/06/29 09:33:18;;;;;;;5.93;4.55;;;27.90;99.90;;;;;;5002875;28;20054;-84
2021/06/29 09:35:58;;;;;;;6.55;3.97;;;27.80;99.90;;;;;;5006150;28;20069;-84
2021/06/29 09:38:30;;;;;;;6.30;4.43;;;27.90;99.90;;;;;;5006488;28;20159;-84
2021/06/29 09:41:05;;;;;;;5.07;4.30;;;28.00;99.90;;;;;;5006201;28;20054;-84
2021/06/29 09:43:38;;;;;;;6.07;4.80;;;27.80;99.90;;;;;;5007690;28;20073;-83
2021/06/29 09:46:12;;;;;;;5.55;4.57;;;27.80;99.90;;;;;;5008365;28;20466;-83
2021/06/29 09:48:50;;;;;;;5.70;5.10;;;27.60;99.90;;;;;;5006013;28;20081;-85
2021/06/29 09:51:41;;;;;;;5.75;5.03;;;27.20;99.90;;;;;;5007695;28;20105;-84
2021/06/29 09:54:44;;;;;;;6.13;5.20;;;27.00;99.90;;;;;;5007286;28;20061;-83
2021/06/29 09:57:40;;;;;;;6.80;5.50;;;26.90;99.90;;;;;;5005486;28;20054;-84
2021/06/29 10:00:48;;;;;;;7.25;5.95;;;26.60;99.90;;;;;;5007604;28;20053;-85
2021/06/29 10:03:39;;;;;;;7.85;5.20;;;26.50;99.90;;;;;;5006583;28;20133;-83
2021/06/29 10:06:28;;;;;;;7.85;5.75;;;26.70;99.90;;;;;;5005944;28;20054;-84
2021/06/29 10:09:04;;;;;;;5.85;5.25;;;26.70;99.90;;;;;;4999660;28;20473;-81
2021/06/29 10:11:33;;;;;;;7.43;5.55;;;26.60;99.90;;;;;;5006281;28;20495;-82
2021/06/29 10:14:03;;;;;;;6.50;5.80;;;26.40;99.90;;;;;;5004401;28;20046;-84
2021/06/29 10:16:32;;;;;;;14.95;7.28;;;26.40;99.90;;;;;;5004866;28;20503;-83
2021/06/29 10:21:47;;;;;;;36.05;8.70;;;26.40;99.90;;;;;;5005560;28;20042;-83
2021/06/29 10:24:17;;;;;;;26.13;8.85;;;26.50;99.90;;;;;;5003628;28;20053;-82
2021/06/29 10:26:46;;;;;;;8.10;6.05;;;26.70;99.90;;;;;;5004950;28;20054;-83
2021/06/29 10:29:15;;;;;;;9.05;6.45;;;26.80;99.90;;;;;;5006034;28;20050;-81
2021/06/29 10:31:43;;;;;;;7.30;6.07;;;26.80;99.90;;;;;;5003588;28;20084;-84
2021/06/29 10:34:12;;;;;;;24.35;9.07;;;26.80;99.90;;;;;;5005888;28;20054;-84
2021/06/29 10:36:41;;;;;;;23.17;8.35;;;27.10;99.90;;;;;;5006366;28;20106;-83
2021/06/29 10:39:10;;;;;;;9.75;6.32;;;27.00;99.90;;;;;;5006707;28;20082;-82
2021/06/29 10:41:41;;;;;;;7.88;5.80;;;27.10;99.90;;;;;;5005166;28;20089;-83
2021/06/29 10:44:12;;;;;;;8.70;5.15;;;27.20;99.90;;;;;;5004162;28;20074;-83
2021/06/29 10:46:43;;;;;;;6.05;4.70;;;27.40;99.90;;;;;;5006297;28;20050;-82
2021/06/29 10:49:39;;;;;;;5.53;4.38;;;27.50;99.90;;;;;;5004001;28;20134;-83
2021/06/29 10:52:09;;;;;;;5.85;5.10;;;27.50;99.90;;;;;;5005992;28;20050;-84
2021/06/29 10:54:46;;;;;;;5.30;4.30;;;27.40;99.90;;;;;;5004144;28;20086;-84
2021/06/29 10:57:16;;;;;;;5.35;4.10;;;27.00;99.90;;;;;;5005027;28;20078;-83
2021/06/29 10:59:47;;;;;;;7.32;4.53;;;27.10;99.90;;;;;;5006861;28;20066;-82
2021/06/29 11:02:26;;;;;;;5.47;4.53;;;27.10;99.90;;;;;;5006088;28;20061;-83
2021/06/29 11:04:55;;;;;;;9.57;4.90;;;27.20;99.90;;;;;;5004809;28;20130;-84
2021/06/29 11:07:41;;;;;;;10.73;4.47;;;27.20;99.90;;;;;;5005957;28;20089;-83
2021/06/29 11:10:10;;;;;;;8.35;4.78;;;27.20;99.90;;;;;;5005499;28;20081;-83
2021/06/29 11:12:46;;;;;;;9.35;4.45;;;27.20;99.90;;;;;;5005772;28;20078;-82
2021/06/29 11:15:15;;;;;;;8.40;4.88;;;27.30;99.90;;;;;;5001303;28;20081;-82
2021/06/29 11:17:54;;;;;;;9.30;5.50;;;27.40;99.90;;;;;;5003243;28;20081;-84
2021/06/29 11:20:23;;;;;;;11.40;9.38;;;27.40;99.90;;;;;;5005033;28;20273;-83
2021/06/29 11:22:56;;;;;;;9.38;5.30;;;27.40;99.90;;;;;;5000751;28;20077;-82
2021/06/29 11:25:38;;;;;;;8.40;5.40;;;27.30;99.90;;;;;;5000551;28;20104;-83
2021/06/29 11:28:09;;;;;;;6.35;4.95;;;27.30;99.90;;;;;;5001014;28;20473;-85
2021/06/29 11:30:59;;;;;;;7.35;5.47;;;27.20;99.90;;;;;;5000533;28;20095;-83
2021/06/29 11:33:44;;;;;;;7.75;5.13;;;27.30;99.90;;;;;;4999948;28;20573;-83
2021/06/29 11:36:39;;;;;;;6.88;4.90;;;27.40;99.90;;;;;;5001821;28;20129;-83
2021/06/29 11:39:31;;;;;;;10.45;5.13;;;27.20;99.90;;;;;;4992494;28;20081;-83
2021/06/29 11:42:01;;;;;;;7.35;4.85;;;27.10;99.90;;;;;;4998874;28;20558;-83
2021/06/29 11:44:46;;;;;;;6.15;4.72;;;27.10;99.90;;;;;;4999751;28;20050;-83
2021/06/29 11:47:16;;;;;;;7.03;4.78;;;27.20;99.90;;;;;;4998593;28;20046;-82
2021/06/29 11:49:47;;;;;;;7.25;4.97;;;27.30;99.90;;;;;;4997379;28;20061;-83
2021/06/29 11:52:27;;;;;;;7.05;4.80;;;27.50;99.90;;;;;;4997319;28;20089;-82
2021/06/29 11:54:56;;;;;;;7.45;5.10;;;27.60;99.90;;;;;;4997100;28;20050;-83
2021/06/29 11:57:26;;;;;;;6.22;4.70;;;27.80;99.90;;;;;;4998549;28;20050;-82
2021/06/29 11:59:56;;;;;;;6.63;5.07;;;27.90;99.90;;;;;;5000708;28;20418;-83
2021/06/29 12:02:24;;;;;;;5.55;4.40;;;27.70;99.90;;;;;;5015856;28;20030;-81
2021/06/29 12:05:03;;;;;;;5.43;4.93;;;27.60;99.90;;;;;;5017001;28;20030;-81
2021/06/29 12:07:32;;;;;;;6.65;5.20;;;27.40;99.90;;;;;;5016766;28;20073;-82
2021/06/29 12:09:59;;;;;;;17.13;6.72;;;27.00;99.90;;;;;;5016450;28;20046;-82
2021/06/29 12:12:28;;;;;;;10.90;6.20;;;26.90;99.90;;;;;;5013854;28;20049;-82
2021/06/29 12:15:11;;;;;;;68.40;14.80;;;26.90;99.90;;;;;;5007019;28;20050;-84
2021/06/29 12:17:44;;;;;;;7.97;5.55;;;26.90;99.90;;;;;;5005487;28;20501;-84
2021/06/29 12:20:14;;;;;;;24.15;8.07;;;26.90;99.90;;;;;;5006012;28;20047;-83
2021/06/29 12:22:42;;;;;;;6.38;5.60;;;26.90;99.90;;;;;;5003777;28;20105;-84
2021/06/29 12:25:16;;;;;;;9.13;5.90;;;27.00;99.90;;;;;;5001589;28;20487;-83
2021/06/29 12:27:44;;;;;;;8.15;5.70;;;27.10;99.90;;;;;;5001187;28;20089;-82
2021/06/29 12:30:36;;;;;;;6.20;5.60;;;27.20;99.90;;;;;;5001242;28;20105;-81
2021/06/29 12:33:17;;;;;;;6.65;5.38;;;27.40;99.90;;;;;;5001000;28;20110;-81
2021/06/29 12:35:45;;;;;;;7.43;4.95;;;27.50;99.90;;;;;;4999420;28;20106;-82
2021/06/29 12:38:17;;;;;;;6.38;5.00;;;27.70;99.90;;;;;;5003100;28;20122;-84
2021/06/29 12:40:46;;;;;;;6.95;4.68;;;27.80;99.90;;;;;;5001265;28;20050;-83
2021/06/29 12:43:29;;;;;;;7.00;4.68;;;27.90;99.90;;;;;;5001369;28;20571;-83
2021/06/29 12:45:58;;;;;;;7.53;4.30;;;27.90;99.90;;;;;;5000442;28;20047;-82
2021/06/29 12:48:25;;;;;;;4.78;4.30;;;27.80;99.90;;;;;;5002481;28;20051;-84
2021/06/29 12:50:59;;;;;;;8.02;4.20;;;27.70;99.90;;;;;;5005928;28;20054;-83
2021/06/29 12:53:26;;;;;;;5.65;4.95;;;27.60;99.90;;;;;;5004667;28;20056;-83
2021/06/29 12:55:53;;;;;;;6.65;4.40;;;27.70;99.90;;;;;;5003998;28;20058;-84
2021/06/29 12:58:21;;;;;;;8.98;4.53;;;27.80;99.90;;;;;;5005037;28;20074;-83
2021/06/29 13:00:52;;;;;;;8.13;5.07;;;28.00;99.90;;;;;;5004091;28;20211;-83
2021/06/29 13:03:23;;;;;;;5.45;4.57;;;28.00;99.90;;;;;;5004023;28;20054;-82
2021/06/29 13:06:07;;;;;;;6.65;4.50;;;28.00;99.90;;;;;;5010581;28;20066;-82
2021/06/29 13:08:33;;;;;;;5.47;4.30;;;28.00;99.90;;;;;;5015472;28;20038;-82
2021/06/29 13:11:10;;;;;;;4.82;4.20;;;28.10;99.90;;;;;;5014090;28;20061;-85
2021/06/29 13:13:37;;;;;;;5.63;4.32;;;28.00;99.90;;;;;;5008029;28;20065;-83
2021/06/29 13:16:17;;;;;;;5.43;4.53;;;27.90;99.90;;;;;;5008786;28;20082;-82
2021/06/29 13:18:45;;;;;;;5.82;3.95;;;28.00;99.90;;;;;;5008917;28;20053;-83
2021/06/29 13:21:21;;;;;;;5.25;4.38;;;27.90;99.90;;;;;;5009857;28;20085;-82
2021/06/29 13:24:02;;;;;;;5.07;4.57;;;27.80;99.90;;;;;;5009022;28;20060;-82
2021/06/29 13:26:31;;;;;;;6.32;4.43;;;27.80;99.90;;;;;;5006156;28;20078;-83
2021/06/29 13:28:59;;;;;;;6.22;4.30;;;27.80;99.90;;;;;;5004978;28;20440;-84
2021/06/29 13:31:27;;;;;;;5.13;4.50;;;27.80;99.90;;;;;;5007009;28;20058;-83
2021/06/29 13:33:55;;;;;;;4.60;4.20;;;27.80;99.90;;;;;;5007089;28;20058;-84
2021/06/29 13:36:29;;;;;;;6.80;5.80;;;27.70;99.90;;;;;;5008859;28;20061;-83
2021/06/29 13:38:57;;;;;;;6.22;5.63;;;27.60;99.90;;;;;;5008481;28;20053;-84
2021/06/29 13:41:35;;;;;;;8.10;5.93;;;27.60;99.90;;;;;;5005945;28;20113;-82
2021/06/29 13:44:16;;;;;;;8.57;5.88;;;27.40;99.90;;;;;;5007261;28;20118;-83
2021/06/29 13:46:44;;;;;;;13.52;6.07;;;27.20;99.90;;;;;;5008100;28;20081;-84
2021/06/29 13:49:23;;;;;;;7.72;6.32;;;26.90;99.90;;;;;;5008045;28;20506;-83
2021/06/29 13:51:51;;;;;;;6.95;6.25;;;27.00;99.90;;;;;;5007396;28;20185;-82
2021/06/29 13:54:20;;;;;;;7.43;6.10;;;27.00;99.90;;;;;;5004693;28;20109;-83
2021/06/29 13:56:48;;;;;;;6.45;5.75;;;27.10;99.90;;;;;;5006613;28;20057;-83
2021/06/29 13:59:31;;;;;;;7.63;5.72;;;27.30;99.90;;;;;;5004946;28;20116;-83
2021/06/29 14:01:59;;;;;;;8.32;6.60;;;27.40;99.90;;;;;;5006990;28;20057;-82
2021/06/29 14:04:28;;;;;;;7.70;6.53;;;27.50;99.90;;;;;;5008125;28;20085;-83